Time;durP1;ratioP1;P1;durP2;ratioP2;P2;SDS_P1;SDS_P2;PMS_P1;PMS_P2;Temp;Humidity;BMP_temperature;BMP_pressure;BME280_temperature;BME280_humidity;BME280_pressure;Samples;Min_cycle;Max_cycle;Signal;HPM_P1;HPM_P2
2022/10/08 00:01:33;;;;;;;14.05;7.75;;;;;;;12.78;100.00;99250.50;5091895;28;20054;-77
2022/10/08 00:04:02;;;;;;;13.73;7.85;;;;;;;12.70;100.00;99251.50;5091360;28;20051;-77
2022/10/08 00:06:30;;;;;;;16.42;7.45;;;;;;;12.68;100.00;99251.69;5112942;28;20055;-78
2022/10/08 00:08:58;;;;;;;17.27;8.10;;;;;;;12.72;100.00;99249.41;5113232;28;20048;-77
2022/10/08 00:11:27;;;;;;;14.13;8.50;;;;;;;12.75;100.00;99235.38;5113145;28;20047;-76
2022/10/08 00:13:54;;;;;;;15.50;7.60;;;;;;;12.78;100.00;99258.69;5109288;28;20138;-77
2022/10/08 00:16:23;;;;;;;11.35;7.40;;;;;;;12.81;100.00;99261.88;5091822;28;20048;-76
2022/10/08 00:18:52;;;;;;;11.93;6.97;;;;;;;12.64;100.00;99252.28;5091117;28;20764;-77
2022/10/08 00:21:22;;;;;;;10.23;7.20;;;;;;;12.67;100.00;99246.44;5088022;28;20134;-77
2022/10/08 00:23:50;;;;;;;11.57;7.70;;;;;;;12.73;100.00;99243.75;5111938;28;20071;-77
2022/10/08 00:26:22;;;;;;;18.52;8.02;;;;;;;12.69;100.00;99253.41;5113200;28;20083;-77
2022/10/08 00:28:49;;;;;;;8.95;7.10;;;;;;;12.55;100.00;99244.22;5108648;28;20048;-77
2022/10/08 00:31:18;;;;;;;10.23;7.22;;;;;;;12.62;100.00;99241.56;5092428;28;20044;-77
2022/10/08 00:33:48;;;;;;;12.32;7.22;;;;;;;12.67;100.00;99252.72;5095844;28;20051;-77
2022/10/08 00:36:15;;;;;;;11.63;7.75;;;;;;;12.66;100.00;99252.94;5099901;28;20391;-77
2022/10/08 00:38:42;;;;;;;12.20;7.35;;;;;;;12.72;100.00;99258.44;5096506;28;20044;-77
2022/10/08 00:41:19;;;;;;;13.95;7.35;;;;;;;12.68;100.00;99253.59;5092252;28;20059;-77
2022/10/08 00:43:48;;;;;;;10.95;7.45;;;;;;;12.63;100.00;99262.38;5091596;28;20056;-77
2022/10/08 00:46:24;;;;;;;16.15;7.20;;;;;;;12.51;100.00;99244.81;5092453;28;20058;-77
2022/10/08 00:48:54;;;;;;;18.40;7.35;;;;;;;12.50;100.00;99237.69;5090985;28;20094;-77
2022/10/08 00:51:22;;;;;;;11.20;7.10;;;;;;;12.47;100.00;99244.38;5112406;28;20122;-77
2022/10/08 00:53:51;;;;;;;13.43;7.20;;;;;;;12.41;100.00;99258.78;5091360;28;20077;-77
2022/10/08 00:56:18;;;;;;;12.88;8.25;;;;;;;12.26;100.00;99241.66;5092047;28;20058;-77
2022/10/08 00:58:45;;;;;;;10.25;7.50;;;;;;;12.28;100.00;99239.56;5091831;28;20050;-77
2022/10/08 01:01:12;;;;;;;11.95;7.15;;;;;;;12.28;100.00;99247.75;5091821;28;20055;-77
2022/10/08 01:03:39;;;;;;;11.13;7.22;;;;;;;12.28;100.00;99229.50;5089948;28;20078;-77
2022/10/08 01:06:15;;;;;;;11.45;7.22;;;;;;;12.28;100.00;99234.13;5110697;28;20051;-77
2022/10/08 01:08:49;;;;;;;11.77;8.07;;;;;;;12.19;100.00;99226.09;5103488;28;20044;-77
2022/10/08 01:11:28;;;;;;;15.07;7.50;;;;;;;12.18;100.00;99231.72;5089936;28;20052;-77
2022/10/08 01:14:04;;;;;;;12.65;6.63;;;;;;;12.13;100.00;99231.44;5091032;28;20052;-77
2022/10/08 01:16:39;;;;;;;15.80;6.93;;;;;;;12.24;100.00;99235.53;5091524;28;20086;-77
2022/10/08 01:19:31;;;;;;;13.43;7.28;;;;;;;12.17;100.00;99232.75;5093075;28;20058;-77
2022/10/08 01:22:08;;;;;;;12.40;7.50;;;;;;;11.91;100.00;99197.84;5092972;28;20484;-77
2022/10/08 01:27:34;;;;;;;15.15;8.50;;;;;;;12.20;100.00;99207.84;5091569;28;20059;-77
2022/10/08 01:30:04;;;;;;;11.25;8.02;;;;;;;12.08;100.00;99202.06;5099089;28;20398;-77
2022/10/08 01:32:37;;;;;;;;;;;;;;;12.17;100.00;99227.31;5095825;28;20502;-77
2022/10/08 01:35:09;;;;;;;10.90;6.93;;;;;;;12.16;100.00;99226.47;5111454;28;19920;-77
2022/10/08 01:37:40;;;;;;;16.13;9.15;;;;;;;12.23;100.00;99212.91;5108833;28;20055;-77
2022/10/08 01:40:12;;;;;;;17.02;9.20;;;;;;;12.28;100.00;99218.59;5101458;28;20059;-77
2022/10/08 01:42:41;;;;;;;16.35;8.77;;;;;;;12.21;100.00;99206.81;5088918;28;20047;-77
2022/10/08 01:45:12;;;;;;;16.67;8.95;;;;;;;12.29;100.00;99222.19;5099122;28;20048;-77
2022/10/08 01:47:41;;;;;;;11.02;7.28;;;;;;;12.24;100.00;99222.78;5111264;28;20044;-77
2022/10/08 01:50:16;;;;;;;15.13;8.30;;;;;;;12.35;100.00;99215.94;5111396;28;20058;-77
2022/10/08 01:52:51;;;;;;;11.05;7.55;;;;;;;12.23;100.00;99210.19;5110586;28;20055;-77
2022/10/08 01:55:21;;;;;;;10.07;7.25;;;;;;;12.17;100.00;99216.41;5101546;28;20491;-77
2022/10/08 01:57:51;;;;;;;12.13;7.38;;;;;;;12.33;100.00;99226.19;5089075;28;20578;-77
2022/10/08 02:00:18;;;;;;;12.50;7.72;;;;;;;12.32;100.00;99214.44;5103432;28;20039;-77
2022/10/08 02:02:44;;;;;;;13.13;7.45;;;;;;;12.37;100.00;99219.31;5110393;28;20312;-77
2022/10/08 02:05:12;;;;;;;11.48;7.25;;;;;;;12.31;100.00;99218.22;5111161;28;20047;-77
2022/10/08 02:07:41;;;;;;;21.05;8.63;;;;;;;12.30;100.00;99215.69;5110966;28;20396;-77
2022/10/08 02:10:10;;;;;;;13.88;7.22;;;;;;;12.30;100.00;99213.81;5110318;28;20054;-77
2022/10/08 02:12:38;;;;;;;14.13;6.85;;;;;;;12.26;100.00;99200.78;5085369;28;20471;-77
2022/10/08 02:15:09;;;;;;;12.35;6.93;;;;;;;12.26;100.00;99206.22;5090372;28;20052;-77
2022/10/08 02:17:43;;;;;;;10.68;7.80;;;;;;;12.42;100.00;99225.03;5090644;28;20056;-77
2022/10/08 02:20:17;;;;;;;10.32;6.88;;;;;;;12.33;100.00;99204.38;5088851;28;20055;-77
2022/10/08 02:22:52;;;;;;;13.20;7.05;;;;;;;12.26;100.00;99198.03;5069474;28;20052;-77
2022/10/08 02:25:28;;;;;;;7.68;6.40;;;;;;;12.31;100.00;99214.66;5070582;28;20059;-77
2022/10/08 02:28:04;;;;;;;10.15;6.72;;;;;;;12.27;100.00;99211.47;5097512;28;20392;-77
2022/10/08 02:30:38;;;;;;;12.75;6.60;;;;;;;12.33;100.00;99212.56;5090196;28;20476;-77
2022/10/08 02:33:12;;;;;;;13.02;7.50;;;;;;;12.12;100.00;99189.75;5089762;28;20083;-77
2022/10/08 02:35:44;;;;;;;14.30;7.30;;;;;;;12.11;100.00;99218.00;5090571;28;20040;-77
2022/10/08 02:38:16;;;;;;;13.18;6.40;;;;;;;12.03;100.00;99216.25;5090306;28;20140;-77
2022/10/08 02:40:48;;;;;;;11.25;7.18;;;;;;;11.92;100.00;99189.47;5088659;28;20044;-77
2022/10/08 02:43:20;;;;;;;16.65;6.88;;;;;;;11.93;100.00;99188.47;5107330;28;20360;-77
2022/10/08 02:45:54;;;;;;;10.38;6.15;;;;;;;12.20;100.00;99216.00;5102973;28;20419;-77
2022/10/08 02:48:30;;;;;;;10.38;6.80;;;;;;;12.24;100.00;99209.16;5079758;28;20037;-77
2022/10/08 02:50:59;;;;;;;12.52;6.97;;;;;;;12.13;100.00;99183.22;5090212;28;20503;-77
2022/10/08 02:53:26;;;;;;;10.60;6.93;;;;;;;12.02;100.00;99178.31;5088483;28;20067;-77
2022/10/08 02:56:04;;;;;;;15.32;7.78;;;;;;;12.16;100.00;99206.53;5090856;28;20051;-77
2022/10/08 02:58:31;;;;;;;13.68;8.00;;;;;;;11.96;100.00;99192.72;5094056;28;20056;-76
2022/10/08 03:01:07;;;;;;;11.07;7.80;;;;;;;12.17;100.00;99221.84;5107987;28;20058;-77
2022/10/08 03:03:37;;;;;;;13.40;8.27;;;;;;;12.12;100.00;99202.50;5103031;28;20040;-77
2022/10/08 03:06:08;;;;;;;10.07;7.15;;;;;;;12.23;100.00;99228.41;5089585;28;20052;-76
2022/10/08 03:08:39;;;;;;;9.48;7.15;;;;;;;12.14;100.00;99211.34;5082322;28;20048;-76
2022/10/08 03:11:07;;;;;;;15.75;8.30;;;;;;;12.21;100.00;99217.72;5107718;28;20131;-76
2022/10/08 03:13:36;;;;;;;15.18;8.00;;;;;;;12.24;100.00;99203.69;5109614;28;20048;-76
2022/10/08 03:16:08;;;;;;;15.25;7.57;;;;;;;12.36;100.00;99232.13;5107491;28;20502;-77
2022/10/08 03:18:37;;;;;;;10.40;7.72;;;;;;;12.28;100.00;99231.41;5110518;28;20047;-77
2022/10/08 03:21:07;;;;;;;11.52;7.72;;;;;;;12.43;100.00;99237.63;5097050;28;20055;-77
2022/10/08 03:23:33;;;;;;;14.13;7.63;;;;;;;12.28;100.00;99242.28;5087885;28;20052;-76
2022/10/08 03:26:00;;;;;;;16.52;7.50;;;;;;;12.42;100.00;99243.25;5092557;28;20133;-77
2022/10/08 03:28:26;;;;;;;12.50;7.72;;;;;;;12.35;100.00;99238.59;5114047;28;20099;-76
2022/10/08 03:30:53;;;;;;;14.43;8.05;;;;;;;12.49;100.00;99253.19;5097288;28;20083;-76
2022/10/08 03:33:21;;;;;;;11.45;8.10;;;;;;;12.44;100.00;99236.59;5092829;28;20052;-77
2022/10/08 03:35:48;;;;;;;11.88;7.63;;;;;;;12.30;100.00;99237.47;5099433;28;20055;-77
2022/10/08 03:38:15;;;;;;;11.15;7.57;;;;;;;12.39;100.00;99239.06;5094255;28;20048;-76
2022/10/08 03:40:42;;;;;;;15.32;8.27;;;;;;;12.37;100.00;99243.84;5093276;28;20525;-77
2022/10/08 03:43:09;;;;;;;16.60;8.48;;;;;;;12.28;100.00;99247.75;5092186;28;20073;-77
2022/10/08 03:45:35;;;;;;;10.95;7.28;;;;;;;12.43;100.00;99248.53;5092652;28;20048;-77
2022/10/08 03:48:02;;;;;;;12.95;8.48;;;;;;;12.23;100.00;99236.59;5093878;28;20055;-77
2022/10/08 03:50:30;;;;;;;13.35;7.90;;;;;;;12.15;100.00;99223.91;5113370;28;20050;-77
2022/10/08 03:52:56;;;;;;;11.88;7.78;;;;;;;12.23;100.00;99244.78;5096450;28;20082;-77
2022/10/08 03:55:23;;;;;;;16.40;9.38;;;;;;;12.32;100.00;99238.16;5092964;28;20641;-77
2022/10/08 03:57:50;;;;;;;10.55;7.05;;;;;;;12.31;100.00;99250.91;5092759;28;20099;-77
2022/10/08 04:00:16;;;;;;;11.70;8.05;;;;;;;12.43;100.00;99274.94;5093156;28;20051;-77
2022/10/08 04:02:43;;;;;;;15.70;8.30;;;;;;;12.37;100.00;99260.22;5090955;28;20052;-77
2022/10/08 04:05:09;;;;;;;12.55;8.02;;;;;;;12.33;100.00;99270.66;5104096;28;20438;-76
2022/10/08 04:07:37;;;;;;;13.50;8.20;;;;;;;12.55;100.00;99278.84;5107110;28;20060;-76
2022/10/08 04:10:04;;;;;;;11.35;7.15;;;;;;;12.39;100.00;99261.72;5091531;28;20431;-76
2022/10/08 04:12:31;;;;;;;12.75;7.20;;;;;;;12.46;100.00;99283.56;5091734;28;20044;-77
2022/10/08 04:14:57;;;;;;;12.40;7.75;;;;;;;12.45;100.00;99275.59;5092637;28;20063;-76
2022/10/08 04:17:24;;;;;;;14.38;7.78;;;;;;;12.32;100.00;99271.69;5096327;28;20053;-76
2022/10/08 04:19:51;;;;;;;14.77;8.30;;;;;;;12.33;100.00;99277.97;5112532;28;20047;-77
2022/10/08 04:22:18;;;;;;;12.98;7.88;;;;;;;12.35;100.00;99278.66;5112230;28;20069;-77
2022/10/08 04:24:46;;;;;;;11.32;7.90;;;;;;;12.32;100.00;99282.59;5104905;28;20052;-77
2022/10/08 04:27:13;;;;;;;10.63;7.63;;;;;;;12.39;100.00;99269.88;5092124;28;20068;-77
2022/10/08 04:29:39;;;;;;;11.75;7.38;;;;;;;12.41;100.00;99268.88;5092122;28;20503;-77
2022/10/08 04:32:06;;;;;;;14.05;8.50;;;;;;;12.41;100.00;99272.41;5091056;28;20479;-76
2022/10/08 04:34:32;;;;;;;11.80;7.85;;;;;;;12.37;100.00;99262.94;5104386;28;20054;-77
2022/10/08 04:36:59;;;;;;;11.50;8.00;;;;;;;12.38;100.00;99270.09;5112123;28;20500;-77
2022/10/08 04:39:25;;;;;;;15.00;7.28;;;;;;;12.40;100.00;99281.63;5112629;28;20402;-77
2022/10/08 04:41:53;;;;;;;13.38;6.97;;;;;;;12.24;100.00;99277.28;5108448;28;20062;-77
2022/10/08 04:44:20;;;;;;;10.70;7.45;;;;;;;12.27;100.00;99276.91;5091391;28;20281;-77
2022/10/08 04:46:46;;;;;;;18.23;6.80;;;;;;;12.33;100.00;99284.31;5098717;28;20347;-77
2022/10/08 04:49:13;;;;;;;16.20;7.82;;;;;;;12.25;100.00;99269.94;5095394;28;20046;-77
2022/10/08 04:51:39;;;;;;;11.43;7.78;;;;;;;12.30;100.00;99290.13;5108039;28;20040;-77
2022/10/08 04:54:06;;;;;;;14.88;8.38;;;;;;;12.38;100.00;99289.16;5091570;28;20058;-77
2022/10/08 04:56:34;;;;;;;13.98;8.75;;;;;;;12.41;100.00;99296.13;5091914;28;20048;-77
2022/10/08 04:59:02;;;;;;;11.82;7.57;;;;;;;12.43;100.00;99292.16;5090986;28;20059;-77
2022/10/08 05:01:30;;;;;;;12.85;8.52;;;;;;;12.49;100.00;99306.91;5105111;28;20065;-77
2022/10/08 05:03:58;;;;;;;13.52;8.90;;;;;;;12.45;100.00;99305.59;5111134;28;20055;-77
2022/10/08 05:06:27;;;;;;;14.68;8.38;;;;;;;12.38;100.00;99297.34;5112107;28;20048;-77
2022/10/08 05:08:54;;;;;;;13.75;8.93;;;;;;;12.43;100.00;99307.66;5111973;28;20052;-77
2022/10/08 05:11:23;;;;;;;13.23;7.93;;;;;;;12.33;100.00;99308.84;5110164;28;20505;-77
2022/10/08 05:13:51;;;;;;;11.45;8.68;;;;;;;12.45;100.00;99316.50;5089841;28;20126;-77
2022/10/08 05:16:19;;;;;;;18.15;10.32;;;;;;;12.32;100.00;99298.97;5108927;28;20048;-77
2022/10/08 05:18:47;;;;;;;14.98;9.65;;;;;;;12.41;100.00;99304.31;5091076;28;20104;-77
2022/10/08 05:21:16;;;;;;;14.75;8.65;;;;;;;12.51;100.00;99304.81;5071291;28;20052;-77
2022/10/08 05:23:43;;;;;;;14.73;8.98;;;;;;;12.42;100.00;99298.66;5070370;28;20049;-77
2022/10/08 05:26:15;;;;;;;15.50;9.15;;;;;;;12.35;100.00;99295.84;5070828;28;20049;-77
2022/10/08 05:28:42;;;;;;;21.38;9.77;;;;;;;12.31;100.00;99315.50;5074682;28;20047;-77
2022/10/08 05:31:08;;;;;;;14.63;8.75;;;;;;;12.32;100.00;99322.66;5110973;28;20062;-77
2022/10/08 05:33:37;;;;;;;14.25;9.07;;;;;;;12.20;100.00;99314.13;5091217;28;20077;-77
2022/10/08 05:36:05;;;;;;;16.15;9.55;;;;;;;12.10;100.00;99305.41;5091077;28;20048;-77
2022/10/08 05:38:31;;;;;;;16.73;10.13;;;;;;;12.19;100.00;99326.06;5091082;28;20070;-76
2022/10/08 05:41:08;;;;;;;18.35;12.07;;;;;;;12.03;100.00;99319.81;5090637;28;20048;-77
2022/10/08 05:43:34;;;;;;;32.53;11.40;;;;;;;12.09;100.00;99328.22;5082448;28;20070;-77
2022/10/08 05:46:01;;;;;;;17.98;11.18;;;;;;;11.98;100.00;99327.72;5107776;28;20062;-77
2022/10/08 05:48:27;;;;;;;19.25;10.18;;;;;;;11.98;100.00;99333.16;5091638;28;20044;-77
2022/10/08 05:50:55;;;;;;;17.58;10.52;;;;;;;12.01;100.00;99334.63;5090645;28;20051;-77
2022/10/08 05:53:22;;;;;;;20.88;11.52;;;;;;;11.90;100.00;99333.22;5090480;28;20052;-77
2022/10/08 05:55:48;;;;;;;18.95;11.70;;;;;;;11.92;100.00;99339.31;5088322;28;20058;-77
2022/10/08 05:58:15;;;;;;;16.95;10.57;;;;;;;11.83;100.00;99310.50;5086338;28;20078;-77
2022/10/08 06:00:41;;;;;;;19.98;11.57;;;;;;;11.76;100.00;99315.03;5091355;28;20116;-77
2022/10/08 06:03:08;;;;;;;25.63;11.43;;;;;;;11.75;100.00;99327.78;5093280;28;20048;-77
2022/10/08 06:05:34;;;;;;;18.20;11.18;;;;;;;11.83;100.00;99335.88;5088932;28;20467;-77
2022/10/08 06:08:02;;;;;;;28.05;10.77;;;;;;;11.71;100.00;99331.91;5090249;28;20199;-77
2022/10/08 06:10:30;;;;;;;18.80;11.18;;;;;;;11.85;100.00;99352.84;5078837;28;20084;-77
2022/10/08 06:12:57;;;;;;;18.05;10.13;;;;;;;11.85;100.00;99362.91;5092480;28;20043;-77
2022/10/08 06:15:24;;;;;;;18.35;10.80;;;;;;;11.76;100.00;99342.25;5107975;28;20171;-77
2022/10/08 06:17:51;;;;;;;16.65;9.73;;;;;;;11.93;100.00;99368.28;5111500;28;20070;-77
2022/10/08 06:20:17;;;;;;;19.90;10.32;;;;;;;12.07;100.00;99371.19;5111912;28;20047;-78
2022/10/08 06:22:44;;;;;;;17.63;10.88;;;;;;;11.92;100.00;99352.09;5095204;28;20050;-77
2022/10/08 06:25:12;;;;;;;19.80;10.82;;;;;;;12.08;100.00;99356.53;5089874;28;20041;-77
2022/10/08 06:27:38;;;;;;;21.50;11.25;;;;;;;12.00;100.00;99343.88;5091615;28;20134;-77
2022/10/08 06:30:06;;;;;;;26.77;14.13;;;;;;;12.10;100.00;99360.75;5092076;28;20047;-77
2022/10/08 06:32:32;;;;;;;18.60;11.63;;;;;;;11.93;100.00;99351.09;5110118;28;20107;-77
2022/10/08 06:34:59;;;;;;;18.70;11.02;;;;;;;12.04;100.00;99380.59;5107148;28;20058;-77
2022/10/08 06:37:25;;;;;;;16.55;11.13;;;;;;;11.84;100.00;99353.88;5093690;28;20331;-77
2022/10/08 06:39:52;;;;;;;18.00;11.13;;;;;;;12.01;100.00;99373.66;5089961;28;20055;-77
2022/10/08 06:42:20;;;;;;;17.25;11.55;;;;;;;12.17;100.00;99382.66;5088964;28;20479;-77
2022/10/08 06:44:46;;;;;;;21.08;11.27;;;;;;;12.29;100.00;99391.19;5088905;28;20079;-77
2022/10/08 06:47:13;;;;;;;15.80;11.05;;;;;;;12.22;100.00;99377.47;5070472;28;20132;-77
2022/10/08 06:49:39;;;;;;;31.33;11.82;;;;;;;12.39;100.00;99392.56;5070270;28;20136;-77
2022/10/08 06:52:06;;;;;;;24.05;12.25;;;;;;;12.38;100.00;99381.88;5069397;28;20072;-77
2022/10/08 06:54:33;;;;;;;17.58;11.70;;;;;;;12.29;100.00;99369.38;5070563;28;20055;-77
2022/10/08 06:56:59;;;;;;;21.38;12.32;;;;;;;12.54;100.00;99406.19;5089313;28;20075;-77
2022/10/08 06:59:27;;;;;;;26.45;13.25;;;;;;;12.54;100.00;99383.50;5089648;28;20048;-77
2022/10/08 07:01:54;;;;;;;21.55;11.50;;;;;;;12.78;100.00;99408.72;5097438;28;20056;-77
2022/10/08 07:04:20;;;;;;;21.52;12.63;;;;;;;12.78;100.00;99390.50;5113946;28;20307;-77
2022/10/08 07:06:47;;;;;;;19.67;12.18;;;;;;;12.91;100.00;99409.72;5113513;28;20090;-77
2022/10/08 07:09:14;;;;;;;25.17;11.82;;;;;;;12.99;100.00;99397.00;5107467;28;20537;-77
2022/10/08 07:11:40;;;;;;;26.23;12.23;;;;;;;13.02;100.00;99405.66;5112721;28;20047;-77
2022/10/08 07:14:07;;;;;;;15.13;10.90;;;;;;;13.18;100.00;99403.69;5110703;28;20055;-77
2022/10/08 07:16:34;;;;;;;15.05;10.93;;;;;;;13.37;100.00;99418.56;5087685;28;20075;-77
2022/10/08 07:19:01;;;;;;;32.95;11.70;;;;;;;13.32;100.00;99418.28;5093700;28;20091;-77
2022/10/08 07:21:29;;;;;;;24.98;12.52;;;;;;;13.37;100.00;99418.56;5093680;28;20131;-77
2022/10/08 07:23:58;;;;;;;23.67;12.20;;;;;;;13.62;100.00;99432.66;5092938;28;20048;-77
2022/10/08 07:26:27;;;;;;;24.27;13.85;;;;;;;13.55;100.00;99401.69;5114084;28;20050;-77
2022/10/08 07:28:56;;;;;;;26.80;12.60;;;;;;;13.87;100.00;99438.50;5114153;28;20047;-77
2022/10/08 07:31:26;;;;;;;18.02;10.52;;;;;;;13.84;100.00;99443.53;5098081;28;20047;-77
2022/10/08 07:33:54;;;;;;;16.08;10.15;;;;;;;13.78;100.00;99426.06;5092784;28;20055;-77
2022/10/08 07:36:22;;;;;;;20.10;10.57;;;;;;;14.15;100.00;99443.94;5092841;28;20068;-77
2022/10/08 07:38:53;;;;;;;24.55;10.60;;;;;;;14.13;100.00;99435.09;5099748;28;20055;-77
2022/10/08 07:41:20;;;;;;;20.92;10.32;;;;;;;14.33;100.00;99451.63;5113535;28;20040;-77
2022/10/08 07:43:50;;;;;;;19.05;8.75;;;;;;;14.38;100.00;99442.81;5112928;28;20047;-77
2022/10/08 07:46:16;;;;;;;18.00;9.43;;;;;;;14.25;100.00;99427.16;5113094;28;20479;-77
2022/10/08 07:48:43;;;;;;;15.75;7.43;;;;;;;14.60;100.00;99446.28;5098914;28;20044;-77
2022/10/08 07:51:12;;;;;;;16.10;8.55;;;;;;;14.74;100.00;99443.59;5094223;28;20039;-77
2022/10/08 07:53:39;;;;;;;15.05;7.30;;;;;;;14.74;100.00;99444.47;5112776;28;20047;-77
2022/10/08 07:56:07;;;;;;;13.55;6.38;;;;;;;14.96;100.00;99449.78;5113538;28;20051;-77
2022/10/08 07:58:34;;;;;;;14.27;4.57;;;;;;;14.93;100.00;99456.50;5106609;28;20697;-77
2022/10/08 08:01:03;;;;;;;15.35;4.78;;;;;;;15.07;100.00;99446.47;5092833;28;20052;-77
2022/10/08 08:03:30;;;;;;;13.40;4.03;;;;;;;15.26;100.00;99449.44;5091481;28;20118;-77
2022/10/08 08:06:01;;;;;;;9.27;4.32;;;;;;;15.35;100.00;99449.00;5091089;28;20040;-77
2022/10/08 08:08:28;;;;;;;13.07;3.20;;;;;;;15.15;93.81;99443.50;5106966;28;20035;-77
2022/10/08 08:10:56;;;;;;;6.40;2.75;;;;;;;15.31;93.79;99463.34;5111417;28;20467;-77
2022/10/08 08:13:23;;;;;;;8.13;3.00;;;;;;;15.31;93.62;99463.34;5112518;28;20058;-77
2022/10/08 08:15:56;;;;;;;11.90;3.47;;;;;;;15.30;96.71;99462.50;5103863;28;20054;-77
2022/10/08 08:18:23;;;;;;;8.63;3.22;;;;;;;15.18;95.43;99445.84;5093012;28;20048;-77
2022/10/08 08:20:49;;;;;;;10.60;2.15;;;;;;;15.08;90.74;99455.50;5086061;28;20051;-78
2022/10/08 08:23:15;;;;;;;10.23;2.47;;;;;;;15.13;84.94;99480.34;5092027;28;20415;-78
2022/10/08 08:25:44;;;;;;;9.40;2.35;;;;;;;14.99;83.20;99476.75;5092080;28;20046;-77
2022/10/08 08:28:11;;;;;;;9.52;3.10;;;;;;;14.96;82.86;99482.63;5092553;28;20074;-77
2022/10/08 08:30:37;;;;;;;10.70;2.13;;;;;;;14.93;80.57;99488.53;5092468;28;20047;-77
2022/10/08 08:33:04;;;;;;;8.25;1.80;;;;;;;14.92;71.50;99490.44;5091091;28;20047;-78
2022/10/08 08:35:30;;;;;;;7.57;1.42;;;;;;;14.84;69.76;99479.66;5097233;28;20051;-77
2022/10/08 08:37:57;;;;;;;9.80;1.80;;;;;;;14.85;70.15;99473.97;5111956;28;20055;-77
2022/10/08 08:40:23;;;;;;;5.45;1.60;;;;;;;14.88;72.12;99488.31;5091783;28;20396;-78
2022/10/08 08:42:55;;;;;;;8.60;1.73;;;;;;;15.10;71.45;99491.72;5091143;28;20054;-77
2022/10/08 08:45:26;;;;;;;6.75;1.80;;;;;;;14.95;70.10;99464.50;5092481;28;20108;-77
2022/10/08 08:48:04;;;;;;;11.40;2.30;;;;;;;15.15;68.12;99495.53;5091003;28;20475;-77
2022/10/08 08:50:34;;;;;;;5.68;1.75;;;;;;;15.01;69.84;99489.19;5093850;28;20062;-77
2022/10/08 08:53:02;;;;;;;6.93;2.17;;;;;;;15.03;70.56;99488.97;5093237;28;20048;-77
2022/10/08 08:55:35;;;;;;;8.02;2.17;;;;;;;15.09;67.26;99496.38;5091992;28;20062;-77
2022/10/08 08:58:12;;;;;;;13.52;1.48;;;;;;;15.09;66.13;99501.00;5091988;28;20048;-78
2022/10/08 09:00:42;;;;;;;7.72;1.50;;;;;;;15.14;66.35;99502.06;5092070;28;20503;-78
2022/10/08 09:03:16;;;;;;;4.70;1.40;;;;;;;15.06;66.22;99477.63;5091472;28;20060;-78
2022/10/08 09:05:45;;;;;;;3.40;1.17;;;;;;;15.30;65.60;99505.50;5098034;28;20050;-78
2022/10/08 09:08:16;;;;;;;7.10;2.00;;;;;;;15.26;66.25;99483.13;5101192;28;20044;-78
2022/10/08 09:10:46;;;;;;;7.45;2.10;;;;;;;15.28;65.07;99499.34;5090244;28;20051;-77
2022/10/08 09:13:19;;;;;;;6.70;1.77;;;;;;;15.43;64.28;99510.13;5107989;28;20426;-78
2022/10/08 09:15:46;;;;;;;7.03;1.60;;;;;;;15.47;64.23;99498.53;5110955;28;20051;-78
2022/10/08 09:18:15;;;;;;;12.95;1.70;;;;;;;15.47;63.19;99490.31;5102990;28;20058;-78
2022/10/08 09:20:41;;;;;;;10.75;2.00;;;;;;;15.58;63.46;99497.06;5111637;28;20040;-78
2022/10/08 09:23:14;;;;;;;6.35;1.75;;;;;;;15.72;64.77;99509.75;5106541;28;20054;-78
2022/10/08 09:25:43;;;;;;;8.38;1.83;;;;;;;15.74;63.22;99502.16;5110886;28;20059;-78
2022/10/08 09:28:09;;;;;;;18.25;2.58;;;;;;;15.66;63.41;99494.16;5110839;28;20051;-78
2022/10/08 09:30:39;;;;;;;12.00;2.03;;;;;;;15.80;65.03;99516.94;5111658;28;20146;-78
